sensor_id;sensor_type;location;lat;lon;timestamp;P1;durP1;ratioP1;P2;durP2;ratioP2
74177;SDS011;62540;48.456;-4.456;2022-12-11T00:02:16;17.50;;;17.00;;
74177;SDS011;62540;48.456;-4.456;2022-12-11T00:04:42;17.50;;;17.00;;
74177;SDS011;62540;48.456;-4.456;2022-12-11T00:07:07;15.50;;;14.00;;
74177;SDS011;62540;48.456;-4.456;2022-12-11T00:09:33;14.50;;;13.75;;
74177;SDS011;62540;48.456;-4.456;2022-12-11T00:11:58;16.00;;;14.00;;
74177;SDS011;62540;48.456;-4.456;2022-12-11T00:14:24;13.50;;;13.00;;
74177;SDS011;62540;48.456;-4.456;2022-12-11T00:16:49;15.50;;;12.50;;
74177;SDS011;62540;48.456;-4.456;2022-12-11T00:19:15;12.00;;;11.75;;
74177;SDS011;62540;48.456;-4.456;2022-12-11T00:21:40;22.25;;;14.50;;
74177;SDS011;62540;48.456;-4.456;2022-12-11T00:24:06;15.50;;;12.00;;
74177;SDS011;62540;48.456;-4.456;2022-12-11T00:26:31;14.25;;;12.00;;
74177;SDS011;62540;48.456;-4.456;2022-12-11T00:28:57;12.75;;;12.00;;
74177;SDS011;62540;48.456;-4.456;2022-12-11T00:31:23;21.50;;;13.75;;
74177;SDS011;62540;48.456;-4.456;2022-12-11T00:33:49;12.25;;;11.00;;
74177;SDS011;62540;48.456;-4.456;2022-12-11T00:36:16;14.00;;;13.50;;
74177;SDS011;62540;48.456;-4.456;2022-12-11T00:38:43;12.25;;;11.00;;
74177;SDS011;62540;48.456;-4.456;2022-12-11T00:41:09;11.25;;;11.25;;
74177;SDS011;62540;48.456;-4.456;2022-12-11T00:43:35;11.75;;;9.75;;
74177;SDS011;62540;48.456;-4.456;2022-12-11T00:46:01;13.50;;;12.00;;
74177;SDS011;62540;48.456;-4.456;2022-12-11T00:48:27;12.00;;;12.00;;
74177;SDS011;62540;48.456;-4.456;2022-12-11T00:50:52;13.00;;;11.00;;
74177;SDS011;62540;48.456;-4.456;2022-12-11T00:53:18;11.75;;;9.00;;
74177;SDS011;62540;48.456;-4.456;2022-12-11T00:55:44;16.50;;;12.00;;
74177;SDS011;62540;48.456;-4.456;2022-12-11T00:58:10;14.00;;;12.00;;
74177;SDS011;62540;48.456;-4.456;2022-12-11T01:00:35;16.00;;;13.00;;
74177;SDS011;62540;48.456;-4.456;2022-12-11T01:03:02;13.50;;;13.50;;
74177;SDS011;62540;48.456;-4.456;2022-12-11T01:05:28;12.75;;;12.75;;
74177;SDS011;62540;48.456;-4.456;2022-12-11T01:07:53;16.00;;;13.00;;
74177;SDS011;62540;48.456;-4.456;2022-12-11T01:10:19;8.75;;;8.75;;
74177;SDS011;62540;48.456;-4.456;2022-12-11T01:15:27;8.00;;;8.00;;
74177;SDS011;62540;48.456;-4.456;2022-12-11T01:17:54;11.25;;;11.25;;
74177;SDS011;62540;48.456;-4.456;2022-12-11T01:20:21;11.00;;;10.50;;
74177;SDS011;62540;48.456;-4.456;2022-12-11T01:22:47;11.00;;;11.00;;
74177;SDS011;62540;48.456;-4.456;2022-12-11T01:25:15;11.00;;;9.25;;
74177;SDS011;62540;48.456;-4.456;2022-12-11T01:27:41;12.00;;;11.00;;
74177;SDS011;62540;48.456;-4.456;2022-12-11T01:30:07;10.50;;;8.00;;
74177;SDS011;62540;48.456;-4.456;2022-12-11T01:32:34;8.75;;;8.50;;
74177;SDS011;62540;48.456;-4.456;2022-12-11T01:35:01;8.50;;;8.00;;
74177;SDS011;62540;48.456;-4.456;2022-12-11T01:37:28;11.75;;;11.25;;
74177;SDS011;62540;48.456;-4.456;2022-12-11T01:39:54;12.25;;;11.25;;
74177;SDS011;62540;48.456;-4.456;2022-12-11T01:42:20;12.50;;;11.25;;
74177;SDS011;62540;48.456;-4.456;2022-12-11T01:47:11;16.00;;;15.00;;
74177;SDS011;62540;48.456;-4.456;2022-12-11T01:49:37;15.25;;;13.00;;
74177;SDS011;62540;48.456;-4.456;2022-12-11T01:52:12;12.25;;;12.25;;
74177;SDS011;62540;48.456;-4.456;2022-12-11T01:54:43;15.25;;;13.25;;
74177;SDS011;62540;48.456;-4.456;2022-12-11T01:57:09;15.25;;;14.00;;
74177;SDS011;62540;48.456;-4.456;2022-12-11T01:59:37;14.75;;;13.75;;
74177;SDS011;62540;48.456;-4.456;2022-12-11T02:02:06;6.50;;;6.50;;
74177;SDS011;62540;48.456;-4.456;2022-12-11T02:04:39;12.75;;;12.25;;
74177;SDS011;62540;48.456;-4.456;2022-12-11T02:07:06;11.50;;;9.75;;
74177;SDS011;62540;48.456;-4.456;2022-12-11T02:09:34;9.75;;;9.50;;
74177;SDS011;62540;48.456;-4.456;2022-12-11T02:17:12;11.25;;;11.25;;
74177;SDS011;62540;48.456;-4.456;2022-12-11T02:25:31;12.50;;;11.00;;
74177;SDS011;62540;48.456;-4.456;2022-12-11T02:31:11;13.00;;;13.00;;
74177;SDS011;62540;48.456;-4.456;2022-12-11T02:36:34;15.50;;;12.25;;
74177;SDS011;62540;48.456;-4.456;2022-12-11T02:39:04;13.75;;;13.50;;
74177;SDS011;62540;48.456;-4.456;2022-12-11T02:41:32;14.00;;;13.00;;
74177;SDS011;62540;48.456;-4.456;2022-12-11T02:43:58;20.75;;;17.75;;
74177;SDS011;62540;48.456;-4.456;2022-12-11T02:46:27;19.00;;;18.75;;
74177;SDS011;62540;48.456;-4.456;2022-12-11T02:48:54;18.00;;;16.50;;
74177;SDS011;62540;48.456;-4.456;2022-12-11T02:51:23;16.75;;;14.25;;
74177;SDS011;62540;48.456;-4.456;2022-12-11T02:53:53;16.00;;;15.25;;
74177;SDS011;62540;48.456;-4.456;2022-12-11T02:56:28;18.00;;;16.25;;
74177;SDS011;62540;48.456;-4.456;2022-12-11T02:59:02;12.25;;;12.00;;
74177;SDS011;62540;48.456;-4.456;2022-12-11T03:01:33;15.00;;;12.75;;
74177;SDS011;62540;48.456;-4.456;2022-12-11T03:03:58;12.25;;;11.75;;
74177;SDS011;62540;48.456;-4.456;2022-12-11T03:06:26;14.75;;;14.75;;
74177;SDS011;62540;48.456;-4.456;2022-12-11T03:08:59;11.25;;;9.75;;
74177;SDS011;62540;48.456;-4.456;2022-12-11T03:11:25;8.50;;;7.00;;
74177;SDS011;62540;48.456;-4.456;2022-12-11T03:13:50;16.50;;;14.50;;
74177;SDS011;62540;48.456;-4.456;2022-12-11T03:19:16;7.75;;;7.50;;
74177;SDS011;62540;48.456;-4.456;2022-12-11T03:21:57;16.00;;;13.00;;
74177;SDS011;62540;48.456;-4.456;2022-12-11T03:24:43;16.75;;;15.25;;
74177;SDS011;62540;48.456;-4.456;2022-12-11T03:27:15;16.00;;;15.25;;
74177;SDS011;62540;48.456;-4.456;2022-12-11T03:29:59;15.25;;;14.25;;
74177;SDS011;62540;48.456;-4.456;2022-12-11T03:32:30;15.25;;;14.00;;
74177;SDS011;62540;48.456;-4.456;2022-12-11T03:35:04;17.75;;;13.75;;
74177;SDS011;62540;48.456;-4.456;2022-12-11T03:37:36;15.75;;;14.00;;
74177;SDS011;62540;48.456;-4.456;2022-12-11T03:40:11;18.50;;;14.50;;
74177;SDS011;62540;48.456;-4.456;2022-12-11T03:42:41;12.25;;;11.75;;
74177;SDS011;62540;48.456;-4.456;2022-12-11T03:45:11;17.00;;;12.25;;
74177;SDS011;62540;48.456;-4.456;2022-12-11T03:47:38;16.50;;;15.25;;
74177;SDS011;62540;48.456;-4.456;2022-12-11T03:50:07;12.00;;;11.25;;
74177;SDS011;62540;48.456;-4.456;2022-12-11T03:52:34;10.00;;;10.00;;
74177;SDS011;62540;48.456;-4.456;2022-12-11T03:55:03;13.25;;;12.25;;
74177;SDS011;62540;48.456;-4.456;2022-12-11T03:57:31;15.25;;;13.25;;
74177;SDS011;62540;48.456;-4.456;2022-12-11T04:00:00;15.00;;;15.00;;
74177;SDS011;62540;48.456;-4.456;2022-12-11T04:02:29;16.25;;;15.50;;
74177;SDS011;62540;48.456;-4.456;2022-12-11T04:04:54;10.00;;;8.25;;
74177;SDS011;62540;48.456;-4.456;2022-12-11T04:07:20;15.25;;;13.00;;
74177;SDS011;62540;48.456;-4.456;2022-12-11T04:09:45;14.25;;;12.75;;
74177;SDS011;62540;48.456;-4.456;2022-12-11T04:12:11;11.75;;;11.25;;
74177;SDS011;62540;48.456;-4.456;2022-12-11T04:14:36;14.50;;;12.50;;
74177;SDS011;62540;48.456;-4.456;2022-12-11T04:17:20;11.25;;;10.25;;
74177;SDS011;62540;48.456;-4.456;2022-12-11T04:20:06;8.00;;;7.25;;
74177;SDS011;62540;48.456;-4.456;2022-12-11T04:22:50;12.00;;;11.00;;
74177;SDS011;62540;48.456;-4.456;2022-12-11T04:25:34;14.25;;;11.25;;
74177;SDS011;62540;48.456;-4.456;2022-12-11T04:28:00;9.00;;;8.25;;
74177;SDS011;62540;48.456;-4.456;2022-12-11T04:30:25;10.50;;;10.00;;
74177;SDS011;62540;48.456;-4.456;2022-12-11T04:32:51;12.25;;;10.25;;
74177;SDS011;62540;48.456;-4.456;2022-12-11T04:35:18;12.00;;;10.75;;
74177;SDS011;62540;48.456;-4.456;2022-12-11T04:37:44;10.50;;;10.00;;
74177;SDS011;62540;48.456;-4.456;2022-12-11T04:40:11;1.00;;;0.00;;
74177;SDS011;62540;48.456;-4.456;2022-12-11T04:42:38;11.25;;;9.75;;
74177;SDS011;62540;48.456;-4.456;2022-12-11T04:45:04;9.75;;;7.75;;
74177;SDS011;62540;48.456;-4.456;2022-12-11T04:47:31;11.25;;;8.25;;
74177;SDS011;62540;48.456;-4.456;2022-12-11T04:49:59;11.00;;;8.00;;
74177;SDS011;62540;48.456;-4.456;2022-12-11T04:52:24;10.00;;;9.50;;
74177;SDS011;62540;48.456;-4.456;2022-12-11T04:54:49;11.00;;;10.00;;
74177;SDS011;62540;48.456;-4.456;2022-12-11T04:57:15;10.50;;;9.75;;
74177;SDS011;62540;48.456;-4.456;2022-12-11T04:59:40;12.00;;;10.00;;
74177;SDS011;62540;48.456;-4.456;2022-12-11T05:02:06;10.00;;;9.75;;
74177;SDS011;62540;48.456;-4.456;2022-12-11T05:04:32;5.50;;;5.50;;
74177;SDS011;62540;48.456;-4.456;2022-12-11T05:06:58;15.25;;;13.00;;
74177;SDS011;62540;48.456;-4.456;2022-12-11T05:09:24;12.50;;;11.25;;
74177;SDS011;62540;48.456;-4.456;2022-12-11T05:11:51;10.75;;;10.50;;
74177;SDS011;62540;48.456;-4.456;2022-12-11T05:14:16;11.50;;;11.50;;
74177;SDS011;62540;48.456;-4.456;2022-12-11T05:16:42;11.75;;;9.00;;
74177;SDS011;62540;48.456;-4.456;2022-12-11T05:19:08;13.50;;;12.00;;
74177;SDS011;62540;48.456;-4.456;2022-12-11T05:21:34;10.00;;;7.25;;
74177;SDS011;62540;48.456;-4.456;2022-12-11T05:23:59;15.25;;;11.25;;
74177;SDS011;62540;48.456;-4.456;2022-12-11T05:26:25;10.25;;;7.25;;
74177;SDS011;62540;48.456;-4.456;2022-12-11T05:28:51;10.75;;;8.25;;
74177;SDS011;62540;48.456;-4.456;2022-12-11T05:31:19;10.50;;;8.25;;
74177;SDS011;62540;48.456;-4.456;2022-12-11T05:33:46;10.50;;;9.75;;
74177;SDS011;62540;48.456;-4.456;2022-12-11T05:36:18;10.75;;;10.00;;
74177;SDS011;62540;48.456;-4.456;2022-12-11T05:38:46;11.75;;;10.00;;
74177;SDS011;62540;48.456;-4.456;2022-12-11T05:41:13;10.00;;;8.50;;
74177;SDS011;62540;48.456;-4.456;2022-12-11T05:43:40;9.75;;;9.00;;
74177;SDS011;62540;48.456;-4.456;2022-12-11T05:48:36;10.00;;;9.00;;
74177;SDS011;62540;48.456;-4.456;2022-12-11T05:51:03;11.75;;;10.00;;
74177;SDS011;62540;48.456;-4.456;2022-12-11T05:53:29;12.75;;;10.25;;
74177;SDS011;62540;48.456;-4.456;2022-12-11T05:56:05;18.00;;;14.75;;
74177;SDS011;62540;48.456;-4.456;2022-12-11T05:58:33;16.00;;;14.00;;
74177;SDS011;62540;48.456;-4.456;2022-12-11T06:00:58;24.25;;;19.00;;
74177;SDS011;62540;48.456;-4.456;2022-12-11T06:03:24;17.75;;;15.00;;
74177;SDS011;62540;48.456;-4.456;2022-12-11T06:05:50;16.50;;;14.25;;
74177;SDS011;62540;48.456;-4.456;2022-12-11T06:08:15;23.50;;;20.25;;
74177;SDS011;62540;48.456;-4.456;2022-12-11T06:10:47;21.75;;;17.75;;
74177;SDS011;62540;48.456;-4.456;2022-12-11T06:13:13;23.75;;;21.50;;
74177;SDS011;62540;48.456;-4.456;2022-12-11T06:15:39;19.50;;;19.00;;
74177;SDS011;62540;48.456;-4.456;2022-12-11T06:18:05;8.50;;;8.50;;
74177;SDS011;62540;48.456;-4.456;2022-12-11T06:20:31;22.50;;;19.75;;
74177;SDS011;62540;48.456;-4.456;2022-12-11T06:22:57;18.25;;;18.25;;
74177;SDS011;62540;48.456;-4.456;2022-12-11T06:25:23;29.50;;;28.00;;
74177;SDS011;62540;48.456;-4.456;2022-12-11T06:27:48;39.50;;;32.00;;
74177;SDS011;62540;48.456;-4.456;2022-12-11T06:30:14;23.75;;;21.25;;
74177;SDS011;62540;48.456;-4.456;2022-12-11T06:32:40;14.25;;;11.00;;
74177;SDS011;62540;48.456;-4.456;2022-12-11T06:35:06;24.50;;;19.75;;
74177;SDS011;62540;48.456;-4.456;2022-12-11T06:37:33;22.75;;;20.25;;
74177;SDS011;62540;48.456;-4.456;2022-12-11T06:39:59;17.50;;;16.00;;
74177;SDS011;62540;48.456;-4.456;2022-12-11T06:42:24;18.50;;;16.75;;
74177;SDS011;62540;48.456;-4.456;2022-12-11T06:44:50;21.00;;;17.00;;
74177;SDS011;62540;48.456;-4.456;2022-12-11T06:47:15;21.00;;;18.75;;
74177;SDS011;62540;48.456;-4.456;2022-12-11T06:49:41;18.25;;;15.00;;
74177;SDS011;62540;48.456;-4.456;2022-12-11T06:52:07;25.25;;;21.50;;
74177;SDS011;62540;48.456;-4.456;2022-12-11T06:54:32;17.75;;;15.75;;
74177;SDS011;62540;48.456;-4.456;2022-12-11T06:56:58;15.00;;;14.25;;
74177;SDS011;62540;48.456;-4.456;2022-12-11T06:59:23;14.50;;;14.00;;
74177;SDS011;62540;48.456;-4.456;2022-12-11T07:01:48;14.75;;;12.50;;
74177;SDS011;62540;48.456;-4.456;2022-12-11T07:04:14;14.75;;;10.75;;
74177;SDS011;62540;48.456;-4.456;2022-12-11T07:06:39;15.25;;;14.50;;
74177;SDS011;62540;48.456;-4.456;2022-12-11T07:09:05;14.25;;;13.00;;
74177;SDS011;62540;48.456;-4.456;2022-12-11T07:11:31;13.50;;;11.50;;
74177;SDS011;62540;48.456;-4.456;2022-12-11T07:13:59;14.50;;;11.25;;
74177;SDS011;62540;48.456;-4.456;2022-12-11T07:16:25;11.00;;;11.00;;
74177;SDS011;62540;48.456;-4.456;2022-12-11T07:18:51;11.25;;;11.00;;
74177;SDS011;62540;48.456;-4.456;2022-12-11T07:21:17;11.25;;;10.25;;
74177;SDS011;62540;48.456;-4.456;2022-12-11T07:23:43;10.75;;;9.00;;
74177;SDS011;62540;48.456;-4.456;2022-12-11T07:26:10;9.25;;;9.00;;
74177;SDS011;62540;48.456;-4.456;2022-12-11T07:28:37;14.00;;;10.00;;
74177;SDS011;62540;48.456;-4.456;2022-12-11T07:31:04;9.00;;;8.00;;
74177;SDS011;62540;48.456;-4.456;2022-12-11T07:33:30;11.25;;;10.25;;
74177;SDS011;62540;48.456;-4.456;2022-12-11T07:35:59;10.00;;;9.00;;
74177;SDS011;62540;48.456;-4.456;2022-12-11T07:38:26;9.50;;;9.25;;
74177;SDS011;62540;48.456;-4.456;2022-12-11T07:40:52;11.00;;;10.00;;
74177;SDS011;62540;48.456;-4.456;2022-12-11T07:43:17;10.00;;;8.75;;
74177;SDS011;62540;48.456;-4.456;2022-12-11T07:45:42;9.00;;;8.25;;
74177;SDS011;62540;48.456;-4.456;2022-12-11T07:48:08;7.25;;;6.25;;
74177;SDS011;62540;48.456;-4.456;2022-12-11T07:50:33;7.00;;;6.00;;
74177;SDS011;62540;48.456;-4.456;2022-12-11T07:52:59;7.25;;;7.00;;
74177;SDS011;62540;48.456;-4.456;2022-12-11T07:55:24;9.25;;;5.75;;
74177;SDS011;62540;48.456;-4.456;2022-12-11T07:57:49;5.50;;;5.50;;
74177;SDS011;62540;48.456;-4.456;2022-12-11T08:00:15;5.75;;;4.00;;
74177;SDS011;62540;48.456;-4.456;2022-12-11T08:02:41;7.50;;;5.25;;
74177;SDS011;62540;48.456;-4.456;2022-12-11T08:05:06;16.25;;;9.00;;
74177;SDS011;62540;48.456;-4.456;2022-12-11T08:07:33;6.00;;;5.25;;
74177;SDS011;62540;48.456;-4.456;2022-12-11T08:09:59;10.00;;;6.00;;
74177;SDS011;62540;48.456;-4.456;2022-12-11T08:12:25;10.00;;;9.50;;
74177;SDS011;62540;48.456;-4.456;2022-12-11T08:14:50;8.50;;;8.00;;
74177;SDS011;62540;48.456;-4.456;2022-12-11T08:17:16;7.75;;;6.50;;
74177;SDS011;62540;48.456;-4.456;2022-12-11T08:19:41;7.00;;;5.50;;
74177;SDS011;62540;48.456;-4.456;2022-12-11T08:22:07;8.75;;;5.00;;
74177;SDS011;62540;48.456;-4.456;2022-12-11T08:24:32;6.00;;;6.00;;
74177;SDS011;62540;48.456;-4.456;2022-12-11T08:26:58;5.75;;;5.75;;
74177;SDS011;62540;48.456;-4.456;2022-12-11T08:29:23;6.00;;;6.00;;
74177;SDS011;62540;48.456;-4.456;2022-12-11T08:31:48;6.50;;;6.00;;
74177;SDS011;62540;48.456;-4.456;2022-12-11T08:34:14;9.50;;;8.00;;
74177;SDS011;62540;48.456;-4.456;2022-12-11T08:36:40;8.25;;;7.25;;
74177;SDS011;62540;48.456;-4.456;2022-12-11T08:39:05;8.75;;;6.00;;
74177;SDS011;62540;48.456;-4.456;2022-12-11T08:41:31;6.75;;;6.00;;
74177;SDS011;62540;48.456;-4.456;2022-12-11T08:43:57;9.00;;;6.00;;
74177;SDS011;62540;48.456;-4.456;2022-12-11T08:46:25;11.25;;;8.75;;
74177;SDS011;62540;48.456;-4.456;2022-12-11T08:48:55;10.25;;;8.75;;
74177;SDS011;62540;48.456;-4.456;2022-12-11T08:51:22;9.25;;;8.50;;
74177;SDS011;62540;48.456;-4.456;2022-12-11T08:53:50;12.00;;;6.00;;
74177;SDS011;62540;48.456;-4.456;2022-12-11T08:56:16;12.75;;;9.50;;
74177;SDS011;62540;48.456;-4.456;2022-12-11T08:58:44;18.25;;;13.75;;
74177;SDS011;62540;48.456;-4.456;2022-12-11T09:01:11;13.25;;;9.50;;
74177;SDS011;62540;48.456;-4.456;2022-12-11T09:03:38;10.00;;;10.00;;
74177;SDS011;62540;48.456;-4.456;2022-12-11T09:06:05;23.00;;;15.25;;
74177;SDS011;62540;48.456;-4.456;2022-12-11T09:08:33;13.75;;;8.75;;
74177;SDS011;62540;48.456;-4.456;2022-12-11T09:11:06;7.00;;;6.75;;
74177;SDS011;62540;48.456;-4.456;2022-12-11T09:13:40;11.25;;;8.75;;
74177;SDS011;62540;48.456;-4.456;2022-12-11T09:16:07;12.75;;;7.25;;
74177;SDS011;62540;48.456;-4.456;2022-12-11T09:18:35;7.75;;;4.00;;
74177;SDS011;62540;48.456;-4.456;2022-12-11T09:21:02;12.75;;;9.25;;
74177;SDS011;62540;48.456;-4.456;2022-12-11T09:23:29;13.00;;;11.25;;
74177;SDS011;62540;48.456;-4.456;2022-12-11T09:25:54;11.25;;;8.75;;
74177;SDS011;62540;48.456;-4.456;2022-12-11T09:28:20;10.50;;;7.25;;
74177;SDS011;62540;48.456;-4.456;2022-12-11T09:30:46;21.50;;;17.50;;
74177;SDS011;62540;48.456;-4.456;2022-12-11T09:33:11;12.00;;;10.25;;
74177;SDS011;62540;48.456;-4.456;2022-12-11T09:35:37;17.50;;;15.25;;
74177;SDS011;62540;48.456;-4.456;2022-12-11T09:38:02;13.00;;;9.75;;
74177;SDS011;62540;48.456;-4.456;2022-12-11T09:40:28;13.25;;;10.00;;
74177;SDS011;62540;48.456;-4.456;2022-12-11T09:43:05;18.25;;;12.75;;
74177;SDS011;62540;48.456;-4.456;2022-12-11T09:45:38;53.75;;;21.75;;
74177;SDS011;62540;48.456;-4.456;2022-12-11T09:48:04;13.50;;;13.25;;
74177;SDS011;62540;48.456;-4.456;2022-12-11T09:50:31;8.75;;;6.00;;
74177;SDS011;62540;48.456;-4.456;2022-12-11T09:55:32;17.00;;;9.00;;
74177;SDS011;62540;48.456;-4.456;2022-12-11T09:58:18;15.50;;;11.00;;
74177;SDS011;62540;48.456;-4.456;2022-12-11T10:00:47;18.25;;;13.50;;
74177;SDS011;62540;48.456;-4.456;2022-12-11T10:11:49;13.50;;;8.25;;
74177;SDS011;62540;48.456;-4.456;2022-12-11T10:17:16;15.50;;;9.25;;
74177;SDS011;62540;48.456;-4.456;2022-12-11T10:19:44;15.00;;;9.50;;
74177;SDS011;62540;48.456;-4.456;2022-12-11T10:22:20;13.75;;;11.00;;
74177;SDS011;62540;48.456;-4.456;2022-12-11T10:25:03;20.00;;;10.50;;
74177;SDS011;62540;48.456;-4.456;2022-12-11T10:27:34;14.25;;;11.75;;
74177;SDS011;62540;48.456;-4.456;2022-12-11T10:35:34;22.50;;;18.25;;
74177;SDS011;62540;48.456;-4.456;2022-12-11T10:38:13;18.50;;;15.00;;
74177;SDS011;62540;48.456;-4.456;2022-12-11T10:40:49;29.25;;;24.00;;
74177;SDS011;62540;48.456;-4.456;2022-12-11T10:43:17;17.50;;;14.50;;
74177;SDS011;62540;48.456;-4.456;2022-12-11T10:45:49;20.00;;;18.25;;
74177;SDS011;62540;48.456;-4.456;2022-12-11T10:48:18;20.00;;;17.50;;
74177;SDS011;62540;48.456;-4.456;2022-12-11T10:50:53;27.25;;;22.00;;
74177;SDS011;62540;48.456;-4.456;2022-12-11T10:53:24;22.75;;;16.75;;
74177;SDS011;62540;48.456;-4.456;2022-12-11T10:55:50;11.50;;;11.00;;
74177;SDS011;62540;48.456;-4.456;2022-12-11T10:58:20;21.00;;;16.75;;
74177;SDS011;62540;48.456;-4.456;2022-12-11T11:01:01;21.25;;;17.00;;
74177;SDS011;62540;48.456;-4.456;2022-12-11T11:03:30;16.25;;;14.75;;
74177;SDS011;62540;48.456;-4.456;2022-12-11T11:06:16;17.75;;;16.75;;
74177;SDS011;62540;48.456;-4.456;2022-12-11T11:08:45;25.25;;;22.50;;
74177;SDS011;62540;48.456;-4.456;2022-12-11T11:13:44;13.50;;;11.75;;
74177;SDS011;62540;48.456;-4.456;2022-12-11T11:16:11;29.00;;;24.50;;
74177;SDS011;62540;48.456;-4.456;2022-12-11T11:18:39;18.75;;;15.50;;
74177;SDS011;62540;48.456;-4.456;2022-12-11T11:21:15;32.25;;;28.75;;
74177;SDS011;62540;48.456;-4.456;2022-12-11T11:23:42;29.50;;;27.00;;
74177;SDS011;62540;48.456;-4.456;2022-12-11T11:26:08;33.25;;;32.75;;
74177;SDS011;62540;48.456;-4.456;2022-12-11T11:28:34;32.50;;;27.25;;
74177;SDS011;62540;48.456;-4.456;2022-12-11T11:33:35;30.25;;;26.25;;
74177;SDS011;62540;48.456;-4.456;2022-12-11T11:36:29;34.25;;;27.75;;
74177;SDS011;62540;48.456;-4.456;2022-12-11T11:41:55;30.50;;;26.50;;
74177;SDS011;62540;48.456;-4.456;2022-12-11T11:44:34;26.75;;;22.50;;
74177;SDS011;62540;48.456;-4.456;2022-12-11T11:47:12;32.75;;;28.50;;
74177;SDS011;62540;48.456;-4.456;2022-12-11T11:52:42;29.25;;;25.75;;
74177;SDS011;62540;48.456;-4.456;2022-12-11T11:57:49;29.25;;;18.75;;
74177;SDS011;62540;48.456;-4.456;2022-12-11T12:00:24;24.50;;;22.25;;
74177;SDS011;62540;48.456;-4.456;2022-12-11T12:02:52;26.50;;;22.75;;
74177;SDS011;62540;48.456;-4.456;2022-12-11T12:05:25;29.00;;;20.75;;
74177;SDS011;62540;48.456;-4.456;2022-12-11T12:08:06;23.50;;;20.75;;
74177;SDS011;62540;48.456;-4.456;2022-12-11T12:14:13;23.25;;;20.75;;
74177;SDS011;62540;48.456;-4.456;2022-12-11T12:16:49;16.75;;;14.00;;
74177;SDS011;62540;48.456;-4.456;2022-12-11T12:19:20;28.50;;;19.25;;
74177;SDS011;62540;48.456;-4.456;2022-12-11T12:21:50;24.25;;;19.25;;
74177;SDS011;62540;48.456;-4.456;2022-12-11T12:26:52;20.00;;;18.00;;
74177;SDS011;62540;48.456;-4.456;2022-12-11T12:32:13;17.00;;;16.50;;
74177;SDS011;62540;48.456;-4.456;2022-12-11T12:45:39;25.25;;;23.00;;
74177;SDS011;62540;48.456;-4.456;2022-12-11T12:48:15;18.50;;;14.50;;
74177;SDS011;62540;48.456;-4.456;2022-12-11T12:50:41;20.50;;;17.75;;
74177;SDS011;62540;48.456;-4.456;2022-12-11T12:53:15;20.50;;;19.50;;
74177;SDS011;62540;48.456;-4.456;2022-12-11T12:55:44;20.75;;;18.25;;
74177;SDS011;62540;48.456;-4.456;2022-12-11T12:58:25;26.75;;;19.50;;
74177;SDS011;62540;48.456;-4.456;2022-12-11T13:00:54;25.75;;;21.00;;
74177;SDS011;62540;48.456;-4.456;2022-12-11T13:03:31;31.25;;;29.25;;
74177;SDS011;62540;48.456;-4.456;2022-12-11T13:06:02;21.00;;;18.00;;
74177;SDS011;62540;48.456;-4.456;2022-12-11T13:08:39;26.50;;;23.50;;
74177;SDS011;62540;48.456;-4.456;2022-12-11T13:11:15;23.00;;;20.25;;
74177;SDS011;62540;48.456;-4.456;2022-12-11T13:13:43;29.00;;;24.25;;
74177;SDS011;62540;48.456;-4.456;2022-12-11T13:18:39;17.00;;;9.25;;
74177;SDS011;62540;48.456;-4.456;2022-12-11T13:23:47;23.25;;;18.75;;
74177;SDS011;62540;48.456;-4.456;2022-12-11T13:26:13;19.50;;;17.25;;
74177;SDS011;62540;48.456;-4.456;2022-12-11T13:28:50;22.50;;;21.00;;
74177;SDS011;62540;48.456;-4.456;2022-12-11T13:33:42;23.00;;;22.25;;
74177;SDS011;62540;48.456;-4.456;2022-12-11T13:39:17;22.00;;;16.00;;
74177;SDS011;62540;48.456;-4.456;2022-12-11T13:41:47;24.50;;;22.00;;
74177;SDS011;62540;48.456;-4.456;2022-12-11T13:44:26;21.00;;;17.75;;
74177;SDS011;62540;48.456;-4.456;2022-12-11T13:46:56;47.00;;;37.00;;
74177;SDS011;62540;48.456;-4.456;2022-12-11T13:49:27;23.50;;;22.00;;
74177;SDS011;62540;48.456;-4.456;2022-12-11T13:51:58;23.50;;;23.25;;
74177;SDS011;62540;48.456;-4.456;2022-12-11T13:54:25;35.00;;;28.00;;
74177;SDS011;62540;48.456;-4.456;2022-12-11T13:56:59;31.50;;;24.50;;
74177;SDS011;62540;48.456;-4.456;2022-12-11T13:59:35;22.75;;;19.00;;
74177;SDS011;62540;48.456;-4.456;2022-12-11T14:02:04;22.50;;;20.75;;
74177;SDS011;62540;48.456;-4.456;2022-12-11T14:04:39;21.75;;;19.25;;
74177;SDS011;62540;48.456;-4.456;2022-12-11T14:07:06;20.75;;;20.00;;
74177;SDS011;62540;48.456;-4.456;2022-12-11T14:09:33;27.25;;;23.25;;
74177;SDS011;62540;48.456;-4.456;2022-12-11T14:12:04;18.50;;;17.25;;
74177;SDS011;62540;48.456;-4.456;2022-12-11T14:16:58;22.00;;;21.00;;
74177;SDS011;62540;48.456;-4.456;2022-12-11T14:19:24;21.50;;;18.00;;
74177;SDS011;62540;48.456;-4.456;2022-12-11T14:21:54;22.00;;;17.25;;
74177;SDS011;62540;48.456;-4.456;2022-12-11T14:24:29;18.25;;;16.25;;
74177;SDS011;62540;48.456;-4.456;2022-12-11T14:26:56;23.25;;;19.00;;
74177;SDS011;62540;48.456;-4.456;2022-12-11T14:29:23;27.00;;;22.25;;
74177;SDS011;62540;48.456;-4.456;2022-12-11T14:32:03;18.00;;;16.00;;
74177;SDS011;62540;48.456;-4.456;2022-12-11T14:37:02;16.00;;;15.25;;
74177;SDS011;62540;48.456;-4.456;2022-12-11T14:39:37;19.75;;;16.00;;
74177;SDS011;62540;48.456;-4.456;2022-12-11T14:44:50;24.50;;;21.25;;
74177;SDS011;62540;48.456;-4.456;2022-12-11T14:47:24;24.50;;;23.50;;
74177;SDS011;62540;48.456;-4.456;2022-12-11T14:52:30;22.50;;;20.75;;
74177;SDS011;62540;48.456;-4.456;2022-12-11T14:57:39;16.50;;;14.50;;
74177;SDS011;62540;48.456;-4.456;2022-12-11T15:00:19;21.00;;;16.75;;
74177;SDS011;62540;48.456;-4.456;2022-12-11T15:02:59;20.75;;;19.00;;
74177;SDS011;62540;48.456;-4.456;2022-12-11T15:05:48;25.50;;;23.50;;
74177;SDS011;62540;48.456;-4.456;2022-12-11T15:10:40;15.50;;;13.50;;
74177;SDS011;62540;48.456;-4.456;2022-12-11T15:13:09;31.75;;;30.25;;
74177;SDS011;62540;48.456;-4.456;2022-12-11T15:15:42;25.50;;;22.00;;
74177;SDS011;62540;48.456;-4.456;2022-12-11T15:18:19;22.00;;;21.00;;
74177;SDS011;62540;48.456;-4.456;2022-12-11T15:20:49;25.50;;;22.50;;
74177;SDS011;62540;48.456;-4.456;2022-12-11T15:23:17;30.50;;;25.50;;
74177;SDS011;62540;48.456;-4.456;2022-12-11T15:25:48;36.75;;;35.25;;
74177;SDS011;62540;48.456;-4.456;2022-12-11T15:28:25;23.50;;;22.00;;
74177;SDS011;62540;48.456;-4.456;2022-12-11T15:30:56;27.75;;;24.00;;
74177;SDS011;62540;48.456;-4.456;2022-12-11T15:33:23;28.75;;;23.25;;
74177;SDS011;62540;48.456;-4.456;2022-12-11T15:35:52;29.50;;;28.75;;
74177;SDS011;62540;48.456;-4.456;2022-12-11T15:40:51;30.00;;;26.00;;
74177;SDS011;62540;48.456;-4.456;2022-12-11T15:43:16;28.25;;;23.75;;
74177;SDS011;62540;48.456;-4.456;2022-12-11T15:45:42;19.00;;;18.25;;
74177;SDS011;62540;48.456;-4.456;2022-12-11T15:48:07;26.25;;;21.50;;
74177;SDS011;62540;48.456;-4.456;2022-12-11T15:50:35;24.50;;;23.00;;
74177;SDS011;62540;48.456;-4.456;2022-12-11T15:53:01;28.75;;;22.75;;
74177;SDS011;62540;48.456;-4.456;2022-12-11T15:55:26;24.75;;;22.00;;
74177;SDS011;62540;48.456;-4.456;2022-12-11T15:57:58;17.75;;;16.75;;
74177;SDS011;62540;48.456;-4.456;2022-12-11T16:00:27;21.50;;;20.00;;
74177;SDS011;62540;48.456;-4.456;2022-12-11T16:02:53;21.75;;;21.50;;
74177;SDS011;62540;48.456;-4.456;2022-12-11T16:05:19;21.50;;;18.00;;
74177;SDS011;62540;48.456;-4.456;2022-12-11T16:07:46;27.00;;;24.00;;
74177;SDS011;62540;48.456;-4.456;2022-12-11T16:10:16;30.25;;;28.25;;
74177;SDS011;62540;48.456;-4.456;2022-12-11T16:12:42;26.75;;;24.50;;